Oconto, Nebraska
Current Conditions -  °F | °C
As of 6:31 AM on Monday 22 Dec 2014 (Local Time) from KBBW Reporting Station
Broken Clouds Broken Clouds  
Wind Chill: 29°   Ceiling: 3100
Heat Index: 39°   Visibility: 10mi
Dew Point: 34°   Wind: 20mph
Humidity: 82%   Direction: 320°NW
Pressure: 29.52"   Gusts: NA
Location:  41.14°N, 99.76°W
Report Text: KBBW 221231Z AUTO 32017KT 10SM SCT022 BKN031 04/01 A2952 RMK AO2 T00390011
Loading
Personal Weather Stations






























Interactive Weather Map New forecast layout! Learn more

10-Day Weather Forecast

Advertisements
Track Severe Weather on mobile